createdAt,value
2017-11-03T00:00:05.009Z,9.3
2017-11-03T00:05:03.087Z,9.2
2017-11-03T00:10:08.423Z,9.4
2017-11-03T00:15:07.465Z,9.4
2017-11-03T00:20:03.130Z,9.4
2017-11-03T00:25:15.361Z,9.3
2017-11-03T00:30:07.502Z,9.3
2017-11-03T00:35:05.530Z,9.4
2017-11-03T00:40:05.767Z,9.4
2017-11-03T00:45:18.491Z,9.4
2017-11-03T00:50:08.097Z,9.4
2017-11-03T00:55:07.667Z,9.3
2017-11-03T01:00:18.593Z,9.4
2017-11-03T01:05:07.966Z,9.4
2017-11-03T01:10:08.259Z,9.4
2017-11-03T01:15:25.951Z,9.3
2017-11-03T01:20:02.909Z,9.3
2017-11-03T01:25:07.625Z,9.3
2017-11-03T01:30:05.780Z,9.4
2017-11-03T01:35:07.939Z,9.3
2017-11-03T01:40:18.355Z,9.4
2017-11-03T01:45:05.831Z,9.4
2017-11-03T01:50:03.100Z,9.4
2017-11-03T01:55:20.465Z,9.4
2017-11-03T02:00:02.491Z,9.4
2017-11-03T02:05:15.819Z,9.4
2017-11-03T02:10:07.494Z,9.4
2017-11-03T02:15:05.107Z,9.4
2017-11-03T02:20:23.682Z,9.4
2017-11-03T02:25:08.047Z,9.4
2017-11-03T02:35:17.611Z,9.4
2017-11-03T02:40:05.211Z,9.4
2017-11-03T02:45:20.528Z,9.4
2017-11-03T02:50:05.141Z,9.5
2017-11-03T02:55:26.007Z,9.4
2017-11-03T03:00:02.970Z,9.4
2017-11-03T03:05:05.195Z,9.4
2017-11-03T03:10:03.022Z,9.4
2017-11-03T03:15:05.706Z,9.4
2017-11-03T03:20:02.968Z,9.4
2017-11-03T03:25:33.356Z,9.4
2017-11-03T03:30:05.004Z,9.4
2017-11-03T03:35:05.627Z,9.4
2017-11-03T03:40:21.101Z,2.9
2017-11-03T03:45:07.604Z,9.3
2017-11-03T03:55:08.078Z,9.3
2017-11-03T04:00:02.692Z,9.3
2017-11-03T04:05:10.945Z,9.3
2017-11-03T04:10:17.774Z,9.2
2017-11-03T04:20:07.568Z,9.1
2017-11-03T04:25:05.622Z,9
2017-11-03T04:30:10.463Z,9
2017-11-03T04:35:02.566Z,9
2017-11-03T04:40:02.880Z,8.9
2017-11-03T04:45:18.088Z,8.9
2017-11-03T04:50:05.153Z,8.8
2017-11-03T04:55:03.157Z,8.8
2017-11-03T05:00:02.940Z,8.7
2017-11-03T05:05:15.178Z,8.7
2017-11-03T05:10:25.422Z,8.6
2017-11-03T05:15:02.725Z,8.7
2017-11-03T05:20:05.906Z,8.7
2017-11-03T05:25:10.553Z,8.7
2017-11-03T05:30:02.719Z,8.7
2017-11-03T05:35:05.747Z,8.7
2017-11-03T05:40:02.419Z,8.6
2017-11-03T05:45:07.569Z,8.6
2017-11-03T05:50:07.822Z,8.6
2017-11-03T05:55:07.895Z,8.6
2017-11-03T06:00:10.198Z,8.6
2017-11-03T06:05:08.244Z,8.6
2017-11-03T06:10:08.416Z,8.6
2017-11-03T06:15:02.449Z,8.6
2017-11-03T06:20:13.312Z,8.6
2017-11-03T06:25:02.837Z,8.6
2017-11-03T06:30:07.631Z,8.6
2017-11-03T06:35:03.150Z,8.6
2017-11-03T06:40:02.433Z,8.6
2017-11-03T06:45:02.540Z,8.6
2017-11-03T06:50:03.241Z,8.6
2017-11-03T06:55:05.336Z,8.6
2017-11-03T07:00:02.510Z,8.6
2017-11-03T07:05:05.618Z,8.6
2017-11-03T07:10:03.273Z,8.6
2017-11-03T07:15:05.854Z,8.7
2017-11-03T07:20:03.096Z,8.7
2017-11-03T07:25:05.197Z,8.9
2017-11-03T07:30:08.426Z,8.8
2017-11-03T07:35:20.633Z,8.8
2017-11-03T07:40:05.718Z,8.8
2017-11-03T07:45:20.904Z,8.9
2017-11-03T07:50:03.033Z,8.9
2017-11-03T07:55:02.568Z,9
2017-11-03T08:00:03.353Z,9
2017-11-03T08:05:02.956Z,9.1
2017-11-03T08:10:05.794Z,9.2
2017-11-03T08:15:03.283Z,9.2
2017-11-03T08:20:08.230Z,9.2
2017-11-03T08:25:12.872Z,9.2
2017-11-03T08:30:04.984Z,9.3
2017-11-03T08:35:08.075Z,9.4
2017-11-03T08:40:03.385Z,9.4
2017-11-03T08:45:07.487Z,9.5
2017-11-03T08:55:28.103Z,9.6
2017-11-03T09:00:02.607Z,9.6
2017-11-03T09:05:10.813Z,9.6
2017-11-03T09:10:17.729Z,9.6
2017-11-03T09:15:02.666Z,9.6
2017-11-03T09:20:22.753Z,9.7
2017-11-03T09:25:03.038Z,9.7
2017-11-03T09:30:10.405Z,9.8
2017-11-03T09:35:02.397Z,9.8
2017-11-03T09:40:12.811Z,9.8
2017-11-03T09:45:05.324Z,9.7
2017-11-03T09:50:15.226Z,9.7
2017-11-03T09:55:03.170Z,9.8
2017-11-03T10:00:05.486Z,10.1
2017-11-03T10:05:10.185Z,10.2
2017-11-03T10:10:33.171Z,10.3
2017-11-03T10:15:10.617Z,10.4
2017-11-03T10:20:07.913Z,10.4
2017-11-03T10:25:15.217Z,10.4
2017-11-03T10:30:02.456Z,10.4
2017-11-03T10:35:10.641Z,10.5
2017-11-03T10:40:07.573Z,10.7
2017-11-03T10:45:02.600Z,10.6
2017-11-03T10:50:02.437Z,10.7
2017-11-03T10:55:13.362Z,10.8
2017-11-03T11:00:18.236Z,10.9
2017-11-03T11:05:02.790Z,10.9
2017-11-03T11:10:03.177Z,11
2017-11-03T11:20:05.756Z,11.6
2017-11-03T11:25:05.487Z,11.6
2017-11-03T11:30:02.804Z,11.5
2017-11-03T11:35:07.663Z,11.5
2017-11-03T11:45:10.747Z,11.1
2017-11-03T11:50:05.615Z,11.2
2017-11-03T11:55:04.901Z,11.4
2017-11-03T12:00:05.206Z,11.8
2017-11-03T12:05:07.531Z,11.9
2017-11-03T12:10:07.974Z,12.1
2017-11-03T12:15:10.307Z,12.2
2017-11-03T12:20:05.716Z,12.1
2017-11-03T12:25:15.473Z,12
2017-11-03T12:30:02.705Z,12
2017-11-03T12:35:32.897Z,12
2017-11-03T12:40:05.480Z,12.4
2017-11-03T12:45:03.184Z,12.4
2017-11-03T12:50:28.432Z,12.7
2017-11-03T12:55:02.987Z,12.7
2017-11-03T13:05:17.870Z,12.4
2017-11-03T13:10:05.705Z,12.5
2017-11-03T13:15:04.990Z,12.5
2017-11-03T13:20:03.327Z,12.5
2017-11-03T13:25:31.000Z,13.1
2017-11-03T13:30:03.118Z,13.1
2017-11-03T13:35:03.069Z,13.4
2017-11-03T13:40:05.131Z,13.5
2017-11-03T13:45:05.446Z,13.5
2017-11-03T13:50:07.926Z,13.7
2017-11-03T13:55:05.246Z,13.7
2017-11-03T14:00:05.243Z,13.8
2017-11-03T14:05:07.734Z,13.7
2017-11-03T14:10:03.058Z,13.7
2017-11-03T14:15:02.511Z,13.8
2017-11-03T14:20:07.463Z,13.9
2017-11-03T14:25:10.944Z,14
2017-11-03T14:30:05.817Z,13.9
2017-11-03T14:35:08.331Z,13.9
2017-11-03T14:40:07.747Z,13.8
2017-11-03T14:45:15.779Z,13.7
2017-11-03T14:50:03.101Z,13.7
2017-11-03T14:55:03.037Z,13.6
2017-11-03T15:00:03.068Z,13.2
2017-11-03T15:05:07.966Z,12.8
2017-11-03T15:10:07.500Z,12.6
2017-11-03T15:15:02.765Z,12.5
2017-11-03T15:20:05.284Z,12.1
2017-11-03T15:25:02.568Z,12.1
2017-11-03T15:30:02.539Z,11.8
2017-11-03T15:35:09.984Z,11.3
2017-11-03T15:40:25.600Z,11.1
2017-11-03T15:45:03.122Z,11.1
2017-11-03T15:50:08.069Z,10.7
2017-11-03T15:55:18.030Z,10.5
2017-11-03T16:00:10.267Z,10.3
2017-11-03T16:05:04.989Z,10.1
2017-11-03T16:10:02.752Z,10.1
2017-11-03T16:15:08.093Z,9.7
2017-11-03T16:20:02.834Z,9.7
2017-11-03T16:25:20.279Z,9.5
2017-11-03T16:30:07.473Z,9.3
2017-11-03T16:35:05.595Z,9.2
2017-11-03T16:40:32.734Z,9
2017-11-03T16:45:05.055Z,9
2017-11-03T16:50:03.310Z,9
2017-11-03T16:55:05.533Z,8.7
2017-11-03T17:00:10.315Z,8.7
2017-11-03T17:05:12.512Z,8.6
2017-11-03T17:10:05.179Z,8.5
2017-11-03T17:15:02.757Z,8.5
2017-11-03T17:20:35.496Z,8.4
2017-11-03T17:25:10.678Z,8.3
2017-11-03T17:30:13.014Z,8.2
2017-11-03T17:35:05.074Z,8
2017-11-03T17:40:02.771Z,8
2017-11-03T17:45:02.839Z,8
2017-11-03T17:50:12.768Z,7.9
2017-11-03T17:55:18.377Z,7.8
2017-11-03T18:00:15.596Z,7.7
2017-11-03T18:05:17.714Z,7.8
2017-11-03T18:10:02.787Z,7.8
2017-11-03T18:15:02.819Z,7.8
2017-11-03T18:20:07.637Z,7.8
2017-11-03T18:25:13.267Z,7.9
2017-11-03T18:30:02.907Z,7.9
2017-11-03T18:35:02.490Z,8
2017-11-03T18:40:10.437Z,8
2017-11-03T18:45:05.378Z,8.1
2017-11-03T18:50:25.504Z,8.1
2017-11-03T18:55:05.759Z,8.1
2017-11-03T19:00:05.497Z,8
2017-11-03T19:05:25.348Z,8
2017-11-03T19:10:10.548Z,8
2017-11-03T19:15:02.943Z,8
2017-11-03T19:20:33.360Z,8
2017-11-03T19:25:04.936Z,8
2017-11-03T19:30:05.678Z,7.9
2017-11-03T19:35:05.308Z,7.8
2017-11-03T19:45:05.708Z,7.6
2017-11-03T19:50:02.846Z,7.6
2017-11-03T19:55:04.965Z,7.4
2017-11-03T20:00:08.256Z,7.3
2017-11-03T20:05:05.248Z,7.3
2017-11-03T20:10:05.607Z,7.2
2017-11-03T20:15:28.273Z,7.2
2017-11-03T20:20:05.276Z,7.1
2017-11-03T20:25:05.727Z,7.1
2017-11-03T20:30:02.870Z,7.1
2017-11-03T20:35:15.048Z,7
2017-11-03T20:40:15.268Z,6.4
2017-11-03T20:45:22.889Z,6.9
2017-11-03T20:50:10.916Z,6.8
2017-11-03T20:55:02.857Z,6.8
2017-11-03T21:00:02.530Z,6.8
2017-11-03T21:05:08.160Z,6.7
2017-11-03T21:10:10.862Z,6.6
2017-11-03T21:15:15.890Z,6.6
2017-11-03T21:20:33.235Z,6.6
2017-11-03T21:25:07.486Z,6.6
2017-11-03T21:30:03.078Z,6.6
2017-11-03T21:35:05.056Z,6.4
2017-11-03T21:40:05.247Z,6.4
2017-11-03T21:45:07.778Z,6.4
2017-11-03T21:50:05.878Z,6.3
2017-11-03T21:55:20.615Z,6.3
2017-11-03T22:00:22.797Z,6.2
2017-11-03T22:05:18.173Z,6.2
2017-11-03T22:10:03.207Z,6.1
2017-11-03T22:15:05.659Z,6.1
2017-11-03T22:20:10.341Z,6.1
2017-11-03T22:25:03.226Z,6.1
2017-11-03T22:30:38.507Z,6.1
2017-11-03T22:35:07.447Z,6
2017-11-03T22:40:17.743Z,6
2017-11-03T22:45:02.521Z,6
2017-11-03T22:50:03.201Z,6
2017-11-03T22:55:02.670Z,5.9
2017-11-03T23:00:08.396Z,5.8
2017-11-03T23:05:07.843Z,5.8
2017-11-03T23:10:03.013Z,5.8
2017-11-03T23:15:05.510Z,5.6
2017-11-03T23:20:02.574Z,5.6
2017-11-03T23:25:08.104Z,5.5
2017-11-03T23:35:05.650Z,5.5
2017-11-03T23:40:20.966Z,5.4
2017-11-03T23:45:15.848Z,5.4
2017-11-03T23:50:20.503Z,5.4
2017-11-03T23:55:13.342Z,5.3
